createdAt,value
2018-05-14T00:00:11.162Z,978.53
2018-05-14T00:01:11.121Z,978.47
2018-05-14T00:02:11.085Z,978.57
2018-05-14T00:03:11.044Z,978.55
2018-05-14T00:04:11.006Z,978.57
2018-05-14T00:05:10.974Z,978.54
2018-05-14T00:06:10.933Z,978.56
2018-05-14T00:07:10.897Z,978.56
2018-05-14T00:08:10.859Z,978.48
2018-05-14T00:09:10.818Z,978.47
2018-05-14T00:10:10.784Z,978.43
2018-05-14T00:11:10.749Z,978.48
2018-05-14T00:12:10.719Z,978.44
2018-05-14T00:13:10.678Z,978.44
2018-05-14T00:14:10.639Z,978.46
2018-05-14T00:15:10.599Z,978.42
2018-05-14T00:16:10.558Z,978.41
2018-05-14T00:17:10.523Z,978.39
2018-05-14T00:18:10.486Z,978.40
2018-05-14T00:19:10.450Z,978.44
2018-05-14T00:20:10.455Z,978.46
2018-05-14T00:21:10.371Z,978.40
2018-05-14T00:22:10.337Z,978.39
2018-05-14T00:23:10.302Z,978.36
2018-05-14T00:24:10.267Z,978.37
2018-05-14T00:25:10.231Z,978.33
2018-05-14T00:26:10.194Z,978.37
2018-05-14T00:27:10.150Z,978.35
2018-05-14T00:28:10.110Z,978.35
2018-05-14T00:29:10.076Z,978.34
2018-05-14T00:30:10.039Z,978.37
2018-05-14T00:31:10.009Z,978.34
2018-05-14T00:32:09.968Z,978.35
2018-05-14T00:33:09.929Z,978.31
2018-05-14T00:34:09.893Z,978.29
2018-05-14T00:35:09.853Z,978.27
2018-05-14T00:36:09.811Z,978.26
2018-05-14T00:37:09.783Z,978.21
2018-05-14T00:38:10.134Z,978.25
2018-05-14T00:39:09.706Z,978.25
2018-05-14T00:40:09.662Z,978.26
2018-05-14T00:41:09.626Z,978.18
2018-05-14T00:42:09.591Z,978.12
2018-05-14T00:43:09.566Z,978.13
2018-05-14T00:44:09.519Z,978.11
2018-05-14T00:45:10.136Z,978.07
2018-05-14T00:46:09.447Z,978.05
2018-05-14T00:47:09.405Z,978.03
2018-05-14T00:48:09.364Z,978.09
2018-05-14T00:49:09.329Z,978.05
2018-05-14T00:50:09.293Z,978.02
2018-05-14T00:51:09.257Z,978.04
2018-05-14T00:52:09.229Z,978.04
2018-05-14T00:53:09.178Z,978.08
2018-05-14T00:54:09.149Z,978.10
2018-05-14T00:55:09.109Z,978.16
2018-05-14T00:56:09.072Z,978.12
2018-05-14T00:57:09.035Z,978.12
2018-05-14T00:58:08.995Z,978.19
2018-05-14T00:59:08.957Z,978.14
2018-05-14T01:00:08.918Z,978.18
2018-05-14T01:01:08.880Z,978.18
2018-05-14T01:02:08.844Z,978.20
2018-05-14T01:03:08.809Z,978.19
2018-05-14T01:04:08.772Z,978.17
2018-05-14T01:05:08.734Z,978.19
2018-05-14T01:06:08.698Z,978.19
2018-05-14T01:07:08.661Z,978.18
2018-05-14T01:08:08.618Z,978.16
2018-05-14T01:09:08.591Z,978.20
2018-05-14T01:10:08.547Z,978.12
2018-05-14T01:11:08.511Z,978.14
2018-05-14T01:12:08.477Z,978.13
2018-05-14T01:13:08.430Z,978.10
2018-05-14T01:14:08.398Z,978.10
2018-05-14T01:15:08.360Z,978.06
2018-05-14T01:16:08.324Z,978.03
2018-05-14T01:17:08.287Z,978.00
2018-05-14T01:18:08.248Z,977.95
2018-05-14T01:19:08.210Z,977.88
2018-05-14T01:20:08.168Z,977.86
2018-05-14T01:21:08.130Z,977.96
2018-05-14T01:22:08.097Z,977.96
2018-05-14T01:23:08.062Z,977.99
2018-05-14T01:24:08.024Z,977.91
2018-05-14T01:25:07.985Z,977.88
2018-05-14T01:26:07.949Z,977.86
2018-05-14T01:27:07.912Z,977.81
2018-05-14T01:28:07.939Z,977.87
2018-05-14T01:29:07.838Z,977.88
2018-05-14T01:30:07.799Z,977.87
2018-05-14T01:31:07.763Z,977.92
2018-05-14T01:32:07.724Z,977.99
2018-05-14T01:33:07.683Z,978.02
2018-05-14T01:34:07.647Z,977.97
2018-05-14T01:35:07.610Z,977.99
2018-05-14T01:36:07.576Z,977.94
2018-05-14T01:37:07.539Z,977.94
2018-05-14T01:38:07.500Z,977.93
2018-05-14T01:39:07.468Z,977.95
2018-05-14T01:40:07.422Z,977.93
2018-05-14T01:41:07.388Z,977.98
2018-05-14T01:42:07.350Z,977.96
2018-05-14T01:43:07.312Z,977.96
2018-05-14T01:44:07.272Z,978.00
2018-05-14T01:45:07.232Z,978.02
2018-05-14T01:46:07.201Z,977.99
2018-05-14T01:47:07.168Z,978.03
2018-05-14T01:48:07.124Z,977.98
2018-05-14T01:49:07.087Z,977.97
2018-05-14T01:50:07.051Z,978.02
2018-05-14T01:51:07.012Z,978.03
2018-05-14T01:52:06.968Z,977.97
2018-05-14T01:53:06.935Z,977.97
2018-05-14T01:54:06.899Z,977.98
2018-05-14T01:55:06.864Z,977.96
2018-05-14T01:56:06.827Z,977.88
2018-05-14T01:57:06.785Z,977.90
2018-05-14T01:58:06.749Z,977.93
2018-05-14T01:59:06.712Z,977.98
2018-05-14T02:00:06.677Z,977.96
2018-05-14T02:01:06.640Z,977.94
2018-05-14T02:02:06.600Z,977.90
2018-05-14T02:03:06.563Z,977.90
2018-05-14T02:04:06.524Z,977.84
2018-05-14T02:05:06.485Z,977.86
2018-05-14T02:06:06.450Z,977.84
2018-05-14T02:07:06.418Z,977.85
2018-05-14T02:08:06.379Z,977.84
2018-05-14T02:09:06.343Z,977.82
2018-05-14T02:10:06.302Z,977.83
2018-05-14T02:11:06.269Z,977.81
2018-05-14T02:12:06.225Z,977.80
2018-05-14T02:13:06.265Z,977.76
2018-05-14T02:14:06.152Z,977.78
2018-05-14T02:15:06.116Z,977.76
2018-05-14T02:16:06.078Z,977.72
2018-05-14T02:17:06.039Z,977.77
2018-05-14T02:18:06.002Z,977.76
2018-05-14T02:19:06.658Z,977.76
2018-05-14T02:20:05.931Z,977.73
2018-05-14T02:21:05.892Z,977.70
2018-05-14T02:22:05.856Z,977.67
2018-05-14T02:23:05.816Z,977.72
2018-05-14T02:24:05.772Z,977.70
2018-05-14T02:25:05.741Z,977.74
2018-05-14T02:26:05.701Z,977.72
2018-05-14T02:27:05.667Z,977.71
2018-05-14T02:28:05.630Z,977.72
2018-05-14T02:29:05.590Z,977.67
2018-05-14T02:30:05.552Z,977.74
2018-05-14T02:31:05.518Z,977.67
2018-05-14T02:32:05.484Z,977.73
2018-05-14T02:33:05.442Z,977.71
2018-05-14T02:34:05.408Z,977.72
2018-05-14T02:35:05.366Z,977.73
2018-05-14T02:36:05.329Z,977.72
2018-05-14T02:37:05.287Z,977.79
2018-05-14T02:38:05.255Z,977.82
2018-05-14T02:39:05.222Z,977.81
2018-05-14T02:40:05.185Z,977.84
2018-05-14T02:41:05.150Z,977.85
2018-05-14T02:42:05.109Z,977.84
2018-05-14T02:43:05.070Z,977.88
2018-05-14T02:44:05.031Z,977.91
2018-05-14T02:45:04.995Z,977.86
2018-05-14T02:46:04.956Z,977.85
2018-05-14T02:47:04.924Z,977.83
2018-05-14T02:48:04.876Z,977.80
2018-05-14T02:49:04.848Z,977.80
2018-05-14T02:50:04.809Z,977.81
2018-05-14T02:51:04.779Z,977.79
2018-05-14T02:52:04.736Z,977.78
2018-05-14T02:53:04.700Z,977.77
2018-05-14T02:54:04.662Z,977.78
2018-05-14T02:55:04.621Z,977.73
2018-05-14T02:56:04.580Z,977.71
2018-05-14T02:57:04.545Z,977.68
2018-05-14T02:58:04.526Z,977.67
2018-05-14T02:59:04.475Z,977.64
2018-05-14T03:00:04.438Z,977.62
2018-05-14T03:01:04.398Z,977.62
2018-05-14T03:02:04.362Z,977.59
2018-05-14T03:03:04.331Z,977.56
2018-05-14T03:04:04.288Z,977.61
2018-05-14T03:05:04.251Z,977.59
2018-05-14T03:06:04.257Z,977.60
2018-05-14T03:07:04.174Z,977.61
2018-05-14T03:08:04.135Z,977.57
2018-05-14T03:09:04.147Z,977.53
2018-05-14T03:10:04.060Z,977.58
2018-05-14T03:11:04.030Z,977.56
2018-05-14T03:12:03.987Z,977.55
2018-05-14T03:13:03.949Z,977.51
2018-05-14T03:14:03.914Z,977.49
2018-05-14T03:15:03.871Z,977.43
2018-05-14T03:16:03.835Z,977.43
2018-05-14T03:17:03.806Z,977.41
2018-05-14T03:18:03.764Z,977.43
2018-05-14T03:19:03.723Z,977.43
2018-05-14T03:20:03.685Z,977.45
2018-05-14T03:21:03.649Z,977.40
2018-05-14T03:22:03.616Z,977.42
2018-05-14T03:23:03.582Z,977.42
2018-05-14T03:24:03.543Z,977.45
2018-05-14T03:25:03.508Z,977.40
2018-05-14T03:26:03.468Z,977.40
2018-05-14T03:27:03.426Z,977.41
2018-05-14T03:28:03.389Z,977.41
2018-05-14T03:29:03.352Z,977.41
2018-05-14T03:30:03.313Z,977.37
2018-05-14T03:31:03.280Z,977.40
2018-05-14T03:32:03.242Z,977.36
2018-05-14T03:33:03.201Z,977.35
2018-05-14T03:34:03.161Z,977.31
2018-05-14T03:35:03.133Z,977.33
2018-05-14T03:36:03.091Z,977.31
2018-05-14T03:37:03.071Z,977.32
2018-05-14T03:38:03.018Z,977.27
2018-05-14T03:39:02.976Z,977.26
2018-05-14T03:40:02.938Z,977.25
2018-05-14T03:41:02.901Z,977.24
2018-05-14T03:42:02.864Z,977.25
2018-05-14T03:43:02.831Z,977.25
2018-05-14T03:44:02.791Z,977.24
2018-05-14T03:45:02.758Z,977.27
2018-05-14T03:46:02.720Z,977.29
2018-05-14T03:47:02.678Z,977.34
2018-05-14T03:48:02.640Z,977.31
2018-05-14T03:49:02.605Z,977.28
2018-05-14T03:50:02.572Z,977.31
2018-05-14T03:51:02.527Z,977.29
2018-05-14T03:52:02.491Z,977.30
2018-05-14T03:53:02.454Z,977.30
2018-05-14T03:54:02.417Z,977.32
2018-05-14T03:55:02.388Z,977.25
2018-05-14T03:56:02.342Z,977.20
2018-05-14T03:57:02.306Z,977.24
2018-05-14T03:58:02.270Z,977.17
2018-05-14T03:59:02.228Z,977.14
2018-05-14T04:00:02.192Z,977.10
2018-05-14T04:01:02.160Z,977.11
2018-05-14T04:02:02.114Z,977.11
2018-05-14T04:03:02.085Z,977.25
2018-05-14T04:04:02.046Z,977.19
2018-05-14T04:05:02.005Z,977.21
2018-05-14T04:06:01.965Z,977.25
2018-05-14T04:07:01.937Z,977.26
2018-05-14T04:08:01.893Z,977.27
2018-05-14T04:09:01.857Z,977.29
2018-05-14T04:10:01.819Z,977.29
2018-05-14T04:11:01.778Z,977.36
2018-05-14T04:12:01.745Z,977.35
2018-05-14T04:13:01.704Z,977.36
2018-05-14T04:14:01.661Z,977.32
2018-05-14T04:15:01.642Z,977.35
2018-05-14T04:16:01.594Z,977.35
2018-05-14T04:17:01.559Z,977.32
2018-05-14T04:18:01.522Z,977.32
2018-05-14T04:19:01.482Z,977.38
2018-05-14T04:20:01.443Z,977.33
2018-05-14T04:21:01.406Z,977.36
2018-05-14T04:22:01.375Z,977.39
2018-05-14T04:23:01.329Z,977.43
2018-05-14T04:24:01.293Z,977.37
2018-05-14T04:25:01.258Z,977.41
2018-05-14T04:26:01.216Z,977.41
2018-05-14T04:27:01.185Z,977.43
2018-05-14T04:28:01.144Z,977.38
2018-05-14T04:29:01.108Z,977.41
2018-05-14T04:30:01.074Z,977.43
2018-05-14T04:31:01.036Z,977.43
2018-05-14T04:32:00.989Z,977.42
2018-05-14T04:33:00.956Z,977.36
2018-05-14T04:34:00.919Z,977.42
2018-05-14T04:35:00.890Z,977.42
2018-05-14T04:36:00.851Z,977.41
2018-05-14T04:37:00.807Z,977.46
2018-05-14T04:38:00.769Z,977.50
2018-05-14T04:39:00.737Z,977.53
2018-05-14T04:40:00.697Z,977.54
2018-05-14T04:41:00.658Z,977.54
2018-05-14T04:42:00.635Z,977.52
2018-05-14T04:43:00.594Z,977.49
2018-05-14T04:44:00.550Z,977.53
2018-05-14T04:45:00.511Z,977.59
2018-05-14T04:46:00.467Z,977.60
2018-05-14T04:47:00.440Z,977.57
2018-05-14T04:48:00.398Z,977.58
2018-05-14T04:49:00.362Z,977.57
2018-05-14T04:50:00.324Z,977.63
2018-05-14T04:51:00.283Z,977.55
2018-05-14T04:52:00.248Z,977.54
2018-05-14T04:53:00.218Z,977.54
2018-05-14T04:54:00.180Z,977.51
2018-05-14T04:55:00.135Z,977.47
2018-05-14T04:56:00.102Z,977.48
2018-05-14T04:57:00.061Z,977.56
2018-05-14T04:58:00.023Z,977.53
2018-05-14T04:58:59.989Z,977.60
2018-05-14T04:59:59.949Z,977.53
2018-05-14T05:00:59.912Z,977.50
2018-05-14T05:01:59.876Z,977.50
2018-05-14T05:02:59.833Z,977.46
2018-05-14T05:03:59.812Z,977.46
2018-05-14T05:04:59.830Z,977.52
2018-05-14T05:05:59.720Z,977.46
2018-05-14T05:06:59.689Z,977.43
2018-05-14T05:07:59.650Z,977.48
2018-05-14T05:08:59.610Z,977.45
2018-05-14T05:09:59.577Z,977.48
2018-05-14T05:10:59.538Z,977.49
2018-05-14T05:11:59.501Z,977.46
2018-05-14T05:12:59.464Z,977.46
2018-05-14T05:13:59.427Z,977.44
2018-05-14T05:14:59.382Z,977.49
2018-05-14T05:16:00.200Z,977.53
2018-05-14T05:16:59.317Z,977.54
2018-05-14T05:17:59.273Z,977.57
2018-05-14T05:18:59.241Z,977.59
2018-05-14T05:19:59.205Z,977.59
2018-05-14T05:20:59.165Z,977.60
2018-05-14T05:21:59.129Z,977.61
2018-05-14T05:22:59.092Z,977.57
2018-05-14T05:23:59.052Z,977.60
2018-05-14T05:24:59.017Z,977.59
2018-05-14T05:25:58.979Z,977.67
2018-05-14T05:26:58.937Z,977.67
2018-05-14T05:27:58.902Z,977.66
2018-05-14T05:28:58.867Z,977.75
2018-05-14T05:29:58.829Z,977.70
2018-05-14T05:30:58.796Z,977.70
2018-05-14T05:31:58.755Z,977.67
2018-05-14T05:32:58.716Z,977.65
2018-05-14T05:33:58.683Z,977.67
2018-05-14T05:34:58.640Z,977.63
2018-05-14T05:35:58.603Z,977.62
2018-05-14T05:36:58.564Z,977.61
2018-05-14T05:37:58.565Z,977.61
2018-05-14T05:38:58.497Z,977.61
2018-05-14T05:39:58.456Z,977.64
2018-05-14T05:40:58.421Z,977.64
2018-05-14T05:41:59.206Z,977.62
2018-05-14T05:42:58.345Z,977.64
2018-05-14T05:43:58.306Z,977.65
2018-05-14T05:44:58.275Z,977.62
2018-05-14T05:45:58.242Z,977.62
2018-05-14T05:46:58.195Z,977.59
2018-05-14T05:47:58.154Z,977.56
2018-05-14T05:48:58.119Z,977.58
2018-05-14T05:49:58.082Z,977.59
2018-05-14T05:50:58.047Z,977.60
2018-05-14T05:51:58.015Z,977.58
2018-05-14T05:52:57.979Z,977.59
2018-05-14T05:53:57.934Z,977.59
2018-05-14T05:54:57.891Z,977.58
2018-05-14T05:55:57.858Z,977.62
2018-05-14T05:56:57.822Z,977.64
2018-05-14T05:57:57.790Z,977.66
2018-05-14T05:58:57.747Z,977.69
2018-05-14T05:59:57.708Z,977.66
2018-05-14T06:00:58.212Z,977.64
2018-05-14T06:01:57.629Z,977.62
2018-05-14T06:02:57.600Z,977.65
2018-05-14T06:03:57.561Z,977.76
2018-05-14T06:04:57.525Z,977.75
2018-05-14T06:05:57.491Z,977.77
2018-05-14T06:06:57.452Z,977.76
2018-05-14T06:07:57.411Z,977.84
2018-05-14T06:08:57.373Z,977.82
2018-05-14T06:09:57.336Z,977.88
2018-05-14T06:10:57.306Z,977.90
2018-05-14T06:11:57.263Z,977.91
2018-05-14T06:12:57.224Z,977.96
2018-05-14T06:13:57.184Z,977.94
2018-05-14T06:14:57.152Z,977.93
2018-05-14T06:15:57.117Z,977.96
2018-05-14T06:16:57.082Z,977.99
2018-05-14T06:17:57.043Z,977.99
2018-05-14T06:18:57.000Z,977.98
2018-05-14T06:19:56.964Z,977.96
2018-05-14T06:20:56.923Z,978.02
2018-05-14T06:21:56.885Z,978.07
2018-05-14T06:22:56.855Z,978.05
2018-05-14T06:23:56.823Z,978.13
2018-05-14T06:24:56.782Z,978.14
2018-05-14T06:25:56.743Z,978.07
2018-05-14T06:26:56.700Z,978.11
2018-05-14T06:27:56.668Z,978.12
2018-05-14T06:28:57.219Z,978.14
2018-05-14T06:29:56.600Z,978.10
2018-05-14T06:30:56.556Z,978.15
2018-05-14T06:31:56.518Z,978.10
2018-05-14T06:32:56.478Z,978.12
2018-05-14T06:33:56.444Z,978.08
2018-05-14T06:34:56.410Z,978.16
2018-05-14T06:35:56.373Z,978.15
2018-05-14T06:36:56.332Z,978.19
2018-05-14T06:37:56.300Z,978.20
2018-05-14T06:38:56.259Z,978.16
2018-05-14T06:39:56.220Z,978.21
2018-05-14T06:40:56.186Z,978.21
2018-05-14T06:41:56.145Z,978.19
2018-05-14T06:42:56.113Z,978.22
2018-05-14T06:43:56.078Z,978.25
2018-05-14T06:44:56.036Z,978.23
2018-05-14T06:45:55.999Z,978.23
2018-05-14T06:46:55.987Z,978.29
2018-05-14T06:47:55.927Z,978.29
2018-05-14T06:48:55.890Z,978.27
2018-05-14T06:49:55.869Z,978.28
2018-05-14T06:50:55.811Z,978.31
2018-05-14T06:51:55.774Z,978.28
2018-05-14T06:52:55.738Z,978.29
2018-05-14T06:53:55.701Z,978.29
2018-05-14T06:54:55.668Z,978.27
2018-05-14T06:55:55.629Z,978.26
2018-05-14T06:56:55.599Z,978.27
2018-05-14T06:57:55.557Z,978.30
2018-05-14T06:58:55.516Z,978.25
2018-05-14T06:59:55.481Z,978.23
2018-05-14T07:00:55.449Z,978.21
2018-05-14T07:01:55.411Z,978.27
2018-05-14T07:02:55.367Z,978.25
2018-05-14T07:03:55.333Z,978.25
2018-05-14T07:04:55.296Z,978.28
2018-05-14T07:05:55.261Z,978.25
2018-05-14T07:06:55.228Z,978.26
2018-05-14T07:07:55.187Z,978.21
2018-05-14T07:08:55.151Z,978.21
2018-05-14T07:09:55.115Z,978.23
2018-05-14T07:10:55.073Z,978.23
2018-05-14T07:11:55.038Z,978.26
2018-05-14T07:12:55.003Z,978.21
2018-05-14T07:13:54.964Z,978.24
2018-05-14T07:14:54.932Z,978.24
2018-05-14T07:15:54.894Z,978.24
2018-05-14T07:16:54.854Z,978.28
2018-05-14T07:17:54.821Z,978.25
2018-05-14T07:18:54.786Z,978.24
2018-05-14T07:19:54.872Z,978.25
2018-05-14T07:20:54.709Z,978.27
2018-05-14T07:21:54.674Z,978.25
2018-05-14T07:22:54.633Z,978.25
2018-05-14T07:23:54.602Z,978.27
2018-05-14T07:24:54.560Z,978.29
2018-05-14T07:25:54.524Z,978.35
2018-05-14T07:26:54.500Z,978.31
2018-05-14T07:27:54.452Z,978.31
2018-05-14T07:28:54.417Z,978.37
2018-05-14T07:29:54.378Z,978.33
2018-05-14T07:30:54.347Z,978.33
2018-05-14T07:31:54.304Z,978.34
2018-05-14T07:32:54.269Z,978.37
2018-05-14T07:33:54.235Z,978.37
2018-05-14T07:34:54.193Z,978.35
2018-05-14T07:35:54.155Z,978.38
2018-05-14T07:36:54.117Z,978.41
2018-05-14T07:37:54.082Z,978.36
2018-05-14T07:38:54.051Z,978.44
2018-05-14T07:39:54.016Z,978.39
2018-05-14T07:40:53.978Z,978.41
2018-05-14T07:41:53.940Z,978.45
2018-05-14T07:42:53.907Z,978.45
2018-05-14T07:43:53.862Z,978.44
2018-05-14T07:44:53.825Z,978.44
2018-05-14T07:45:53.795Z,978.39
2018-05-14T07:46:53.756Z,978.39
2018-05-14T07:47:53.723Z,978.38
2018-05-14T07:48:53.680Z,978.37
2018-05-14T07:49:54.238Z,978.34
2018-05-14T07:50:53.610Z,978.33
2018-05-14T07:51:53.576Z,978.36
2018-05-14T07:52:54.240Z,978.38
2018-05-14T07:53:53.502Z,978.37
2018-05-14T07:54:53.464Z,978.35
2018-05-14T07:55:53.427Z,978.37
2018-05-14T07:56:53.384Z,978.37
2018-05-14T07:57:53.355Z,978.34
2018-05-14T07:58:53.318Z,978.39
2018-05-14T07:59:53.282Z,978.35
2018-05-14T08:00:53.745Z,978.38
2018-05-14T08:01:53.218Z,978.39
2018-05-14T08:02:53.171Z,978.35
2018-05-14T08:03:53.133Z,978.39
2018-05-14T08:04:53.099Z,978.41
2018-05-14T08:05:53.137Z,978.42
2018-05-14T08:06:53.024Z,978.42
2018-05-14T08:07:52.985Z,978.38
2018-05-14T08:08:52.948Z,978.37
2018-05-14T08:09:52.914Z,978.40
2018-05-14T08:10:52.879Z,978.42
2018-05-14T08:11:52.846Z,978.41
2018-05-14T08:12:52.810Z,978.39
2018-05-14T08:13:52.769Z,978.43
2018-05-14T08:14:52.736Z,978.43
2018-05-14T08:15:52.693Z,978.40
2018-05-14T08:16:52.660Z,978.42
2018-05-14T08:17:52.622Z,978.43
2018-05-14T08:18:52.590Z,978.43
2018-05-14T08:19:52.555Z,978.45
2018-05-14T08:20:52.510Z,978.41
2018-05-14T08:21:52.487Z,978.40
2018-05-14T08:22:52.449Z,978.42
2018-05-14T08:23:52.408Z,978.42
2018-05-14T08:24:52.372Z,978.44
2018-05-14T08:25:52.337Z,978.48
2018-05-14T08:26:52.298Z,978.47
2018-05-14T08:27:52.257Z,978.46
2018-05-14T08:28:52.218Z,978.47
2018-05-14T08:29:52.192Z,978.46
2018-05-14T08:30:52.152Z,978.49
2018-05-14T08:31:52.120Z,978.47
2018-05-14T08:32:52.081Z,978.50
2018-05-14T08:33:52.044Z,978.49
2018-05-14T08:34:52.021Z,978.51
2018-05-14T08:35:51.970Z,978.49
2018-05-14T08:36:51.937Z,978.50
2018-05-14T08:37:51.900Z,978.52
2018-05-14T08:38:51.868Z,978.54
2018-05-14T08:39:51.821Z,978.56
2018-05-14T08:40:51.789Z,978.52
2018-05-14T08:41:51.756Z,978.55
2018-05-14T08:42:51.718Z,978.56
2018-05-14T08:43:51.684Z,978.52
2018-05-14T08:44:51.654Z,978.52
2018-05-14T08:45:51.611Z,978.57
2018-05-14T08:46:51.577Z,978.54
2018-05-14T08:47:51.615Z,978.48
2018-05-14T08:48:51.497Z,978.49
2018-05-14T08:49:51.463Z,978.52
2018-05-14T08:50:51.431Z,978.52
2018-05-14T08:51:51.398Z,978.50
2018-05-14T08:52:51.356Z,978.43
2018-05-14T08:53:51.319Z,978.45
2018-05-14T08:54:51.286Z,978.49
2018-05-14T08:55:51.250Z,978.50
2018-05-14T08:56:51.218Z,978.49
2018-05-14T08:57:51.178Z,978.49
2018-05-14T08:58:51.142Z,978.48
2018-05-14T08:59:51.100Z,978.47
2018-05-14T09:00:51.111Z,978.53
2018-05-14T09:01:51.035Z,978.48
2018-05-14T09:02:51.001Z,978.48
2018-05-14T09:03:50.961Z,978.51
2018-05-14T09:04:50.927Z,978.45
2018-05-14T09:05:50.891Z,978.52
2018-05-14T09:06:50.853Z,978.56
2018-05-14T09:07:50.816Z,978.56
2018-05-14T09:08:50.780Z,978.56
2018-05-14T09:09:50.746Z,978.58
2018-05-14T09:10:50.710Z,978.59
2018-05-14T09:11:50.666Z,978.57
2018-05-14T09:12:50.631Z,978.59
2018-05-14T09:13:50.602Z,978.63
2018-05-14T09:14:50.566Z,978.55
2018-05-14T09:15:50.529Z,978.57
2018-05-14T09:16:50.501Z,978.56
2018-05-14T09:17:50.461Z,978.56
2018-05-14T09:18:50.420Z,978.59
2018-05-14T09:19:50.383Z,978.57
2018-05-14T09:20:50.347Z,978.56
2018-05-14T09:21:50.311Z,978.62
2018-05-14T09:22:50.281Z,978.61
2018-05-14T09:23:50.764Z,978.62
2018-05-14T09:24:50.201Z,978.58
2018-05-14T09:25:50.176Z,978.57
2018-05-14T09:26:50.132Z,978.56
2018-05-14T09:27:50.098Z,978.64
2018-05-14T09:28:50.072Z,978.60
2018-05-14T09:29:50.025Z,978.60
2018-05-14T09:30:49.989Z,978.60
2018-05-14T09:31:49.948Z,978.61
2018-05-14T09:32:49.915Z,978.63
2018-05-14T09:33:49.885Z,978.65
2018-05-14T09:34:49.849Z,978.67
2018-05-14T09:35:49.814Z,978.67
2018-05-14T09:36:49.781Z,978.71
2018-05-14T09:37:49.743Z,978.73
2018-05-14T09:38:49.707Z,978.70
2018-05-14T09:39:49.672Z,978.70
2018-05-14T09:40:49.644Z,978.73
2018-05-14T09:41:49.603Z,978.73
2018-05-14T09:42:49.573Z,978.75
2018-05-14T09:43:49.524Z,978.75
2018-05-14T09:44:49.485Z,978.74
2018-05-14T09:45:49.454Z,978.74
2018-05-14T09:46:49.422Z,978.72
2018-05-14T09:47:49.387Z,978.74
2018-05-14T09:48:49.349Z,978.73
2018-05-14T09:49:50.163Z,978.73
2018-05-14T09:50:49.276Z,978.75
2018-05-14T09:51:49.358Z,978.77
2018-05-14T09:52:49.339Z,978.79
2018-05-14T09:53:49.171Z,978.77
2018-05-14T09:54:49.137Z,978.77
2018-05-14T09:55:49.775Z,978.80
2018-05-14T09:56:49.066Z,978.78
2018-05-14T09:57:49.029Z,978.74
2018-05-14T09:58:48.996Z,978.74
2018-05-14T09:59:48.959Z,978.79
2018-05-14T10:00:48.927Z,978.79
2018-05-14T10:01:48.889Z,978.79
2018-05-14T10:02:48.850Z,978.80
2018-05-14T10:03:48.815Z,978.74
2018-05-14T10:04:48.777Z,978.76
2018-05-14T10:05:48.751Z,978.78
2018-05-14T10:06:48.723Z,978.80
2018-05-14T10:07:48.676Z,978.82
2018-05-14T10:08:48.641Z,978.84
2018-05-14T10:09:48.607Z,978.83
2018-05-14T10:10:48.572Z,978.86
2018-05-14T10:11:49.278Z,978.85
2018-05-14T10:12:48.501Z,978.88
2018-05-14T10:13:48.463Z,978.86
2018-05-14T10:14:48.431Z,978.85
2018-05-14T10:15:48.391Z,978.84
2018-05-14T10:16:48.353Z,978.86
2018-05-14T10:17:49.278Z,978.88
2018-05-14T10:18:48.350Z,978.90
2018-05-14T10:19:48.258Z,978.93
2018-05-14T10:20:48.218Z,978.89
2018-05-14T10:21:48.182Z,978.91
2018-05-14T10:22:48.149Z,978.88
2018-05-14T10:23:48.108Z,978.92
2018-05-14T10:24:48.069Z,978.90
2018-05-14T10:25:48.044Z,978.93
2018-05-14T10:26:48.009Z,978.93
2018-05-14T10:27:47.975Z,978.92
2018-05-14T10:28:47.930Z,978.93
2018-05-14T10:29:47.896Z,978.91
2018-05-14T10:30:47.866Z,978.95
2018-05-14T10:31:47.832Z,978.95
2018-05-14T10:32:47.795Z,978.96
2018-05-14T10:33:47.763Z,978.94
2018-05-14T10:34:47.724Z,978.96
2018-05-14T10:35:48.283Z,978.96
2018-05-14T10:36:47.651Z,979.00
2018-05-14T10:37:47.618Z,978.99
2018-05-14T10:38:47.586Z,978.97
2018-05-14T10:39:47.552Z,978.99
2018-05-14T10:40:47.601Z,978.99
2018-05-14T10:41:47.488Z,978.98
2018-05-14T10:42:47.443Z,979.00
2018-05-14T10:43:47.408Z,978.96
2018-05-14T10:44:47.380Z,978.95
2018-05-14T10:45:47.344Z,978.94
2018-05-14T10:46:47.359Z,978.92
2018-05-14T10:47:47.268Z,978.95
2018-05-14T10:48:47.230Z,978.95
2018-05-14T10:49:47.250Z,978.89
2018-05-14T10:50:47.169Z,978.95
2018-05-14T10:51:47.137Z,978.94
2018-05-14T10:52:47.138Z,978.96
2018-05-14T10:53:47.791Z,978.96
2018-05-14T10:54:47.030Z,978.96
2018-05-14T10:55:46.992Z,978.98
2018-05-14T10:56:46.959Z,978.98
2018-05-14T10:57:46.930Z,979.00
2018-05-14T10:58:46.922Z,979.07
2018-05-14T10:59:46.860Z,979.07
2018-05-14T11:00:46.825Z,979.07
2018-05-14T11:01:47.287Z,979.06
2018-05-14T11:02:46.760Z,979.06
2018-05-14T11:03:46.725Z,979.04
2018-05-14T11:04:46.691Z,979.05
2018-05-14T11:05:46.657Z,979.01
2018-05-14T11:06:46.620Z,979.03
2018-05-14T11:07:46.581Z,979.04
2018-05-14T11:08:46.550Z,979.06
2018-05-14T11:09:46.517Z,979.04
2018-05-14T11:10:46.488Z,979.01
2018-05-14T11:11:46.456Z,979.02
2018-05-14T11:12:46.417Z,979.02
2018-05-14T11:13:46.384Z,978.99
2018-05-14T11:14:46.348Z,978.97
2018-05-14T11:15:46.310Z,978.98
2018-05-14T11:16:46.287Z,978.98
2018-05-14T11:17:46.246Z,978.97
2018-05-14T11:18:46.307Z,978.98
2018-05-14T11:19:46.176Z,978.96
2018-05-14T11:20:46.141Z,978.98
2018-05-14T11:21:46.113Z,979.00
2018-05-14T11:22:46.080Z,978.98
2018-05-14T11:23:46.045Z,979.04
2018-05-14T11:24:46.014Z,979.04
2018-05-14T11:25:45.978Z,979.06
2018-05-14T11:26:45.939Z,979.07
2018-05-14T11:27:45.929Z,979.10
2018-05-14T11:28:45.869Z,979.08
2018-05-14T11:29:45.837Z,979.07
2018-05-14T11:30:45.811Z,979.09
2018-05-14T11:31:45.774Z,979.07
2018-05-14T11:32:45.738Z,979.09
2018-05-14T11:33:45.705Z,979.10
2018-05-14T11:34:45.673Z,979.11
2018-05-14T11:35:45.642Z,979.12
2018-05-14T11:36:45.610Z,979.13
2018-05-14T11:37:45.576Z,979.10
2018-05-14T11:38:45.536Z,979.08
2018-05-14T11:39:45.500Z,979.06
2018-05-14T11:40:45.474Z,979.11
2018-05-14T11:41:45.802Z,979.16
2018-05-14T11:42:45.417Z,979.12
2018-05-14T11:43:45.377Z,979.15
2018-05-14T11:44:45.338Z,979.14
2018-05-14T11:45:45.307Z,979.13
2018-05-14T11:46:45.265Z,979.15
2018-05-14T11:47:45.235Z,979.15
2018-05-14T11:48:45.202Z,979.12
2018-05-14T11:49:45.806Z,979.16
2018-05-14T11:50:45.150Z,979.19
2018-05-14T11:51:45.104Z,979.18
2018-05-14T11:52:45.068Z,979.19
2018-05-14T11:53:45.033Z,979.19
2018-05-14T11:54:45.005Z,979.15
2018-05-14T11:55:44.970Z,979.14
2018-05-14T11:56:45.872Z,979.16
2018-05-14T11:57:44.936Z,979.14
2018-05-14T11:58:44.865Z,979.16
2018-05-14T11:59:44.864Z,979.20
2018-05-14T12:00:44.801Z,979.19
2018-05-14T12:01:44.766Z,979.20
2018-05-14T12:02:44.745Z,979.18
2018-05-14T12:03:44.703Z,979.16
2018-05-14T12:04:44.667Z,979.21
2018-05-14T12:05:44.644Z,979.17
2018-05-14T12:06:44.611Z,979.20
2018-05-14T12:07:44.570Z,979.22
2018-05-14T12:08:44.538Z,979.21
2018-05-14T12:09:44.526Z,979.26
2018-05-14T12:10:44.466Z,979.27
2018-05-14T12:11:44.434Z,979.27
2018-05-14T12:12:45.204Z,979.26
2018-05-14T12:13:44.370Z,979.27
2018-05-14T12:14:44.337Z,979.20
2018-05-14T12:15:44.335Z,979.23
2018-05-14T12:16:44.293Z,979.25
2018-05-14T12:17:44.246Z,979.23
2018-05-14T12:18:44.201Z,979.21
2018-05-14T12:19:44.175Z,979.27
2018-05-14T12:20:44.138Z,979.27
2018-05-14T12:21:44.105Z,979.20
2018-05-14T12:22:44.070Z,979.26
2018-05-14T12:23:44.061Z,979.24
2018-05-14T12:24:44.314Z,979.23
2018-05-14T12:25:44.041Z,979.21
2018-05-14T12:26:43.941Z,979.24
2018-05-14T12:27:43.904Z,979.24